Al-Nwaiseeb, Kuwait

5:40 PM AST on July 24, 2014 (GMT +0300)
Kuwait International (OKBK) Elev 180 ft | 29.22 °N, 47.98 °E | Change Station

Current weather conditions updated 40 minutes ago

Clear
Clear
115 °F
Feels Like 115 °F
N
17
Wind Variable Wind from NNW

Tomorrow is forecast to be Cooler than today.

Today
High -- | Low -- °F
--% Chance of Precip.
Yesterday
High -- | Low -- °F
Precip. -- in
5:03 AM 6:41 PM
Waning Crescent, 5% visible
Pressure 29.39 in
Visibility -9999.0 miles
Clouds
Dew Point 48 °F
Humidity 11%
Rainfall 0.00 in
Snow Depth Not available.
UV Not available.
Pollen Not available.
Air Quality Not available.
Flu Activity Not available.
METAR OKBK 241400Z 33015KT CAVOK 46/09 Q0995 NOSIG

More Conditions Fewer Conditions

Pressure 29.39 in
Visibility -9999.0 miles
Clouds
Dew Point 48 °F
Humidity 11%
Rainfall 0.00 in
Snow Depth Not available.
UV Not available.
Pollen Not available.
Air Quality Not available.
Flu Activity Not available.
METAR OKBK 241400Z 33015KT CAVOK 46/09 Q0995 NOSIG

More Conditions Fewer Conditions

10-Day Weather Forecast

Almanac

Astronomy

Jul. 24, 2014 Rise Set
Actual Time 5:03 AM AST 6:41 PM AST
Civil Twilight 4:37 AM AST 7:07 PM AST
Nautical Twilight 4:06 AM AST 7:38 PM AST
Astronomical Twilight 3:33 AM AST 8:11 PM AST
Moon 2:50 AM AST 4:41 PM AST
Length of Visible Light 14h 30m
Length of Day
13h 38m
Tomorrow will be 1m 5s shorter.
Waning Crescent, 5% of the Moon is Illuminated
Today
Waning Crescent
Jul 26
New
Aug 3
First Quarter
Aug 10
Full
Aug 17
Last Quarter

Today's Extremes

Country Highs Country Lows

Community

WunderPhotos

Upload Photos

1,737,027 photos uploaded!

Nearby

Snow Depth

Not available.

Earthquake Activity

City Distance Mag. Time & Date
No recent earthquake activity has been reported nearby.
Minimum magnitude displayed is 2.5.

Coastal Water Temperatures

Place Temperature
No Stations Reporting

Nearby Weather Stations

There are no personal weather stations in this area.